Time;durP1;ratioP1;P1;durP2;ratioP2;P2;SDS_P1;SDS_P2;PMS_P1;PMS_P2;Temp;Humidity;BMP_temperature;BMP_pressure;BME280_temperature;BME280_humidity;BME280_pressure;Samples;Min_cycle;Max_cycle;Signal;HPM_P1;HPM_P2
2023/02/05 00:01:27;;;;;;;15.95;13.68;;;4.40;99.90;;;;;;7366751;19;20019;-63
2023/02/05 00:03:53;;;;;;;17.73;13.30;;;4.50;99.90;;;;;;7372808;19;20014;-63
2023/02/05 00:06:20;;;;;;;18.58;13.05;;;4.40;99.90;;;;;;7374099;19;20047;-63
2023/02/05 00:08:46;;;;;;;17.98;13.57;;;4.40;99.90;;;;;;7371417;19;20022;-63
2023/02/05 00:11:13;;;;;;;15.63;12.60;;;4.50;99.90;;;;;;7372549;19;20823;-63
2023/02/05 00:13:43;;;;;;;15.98;13.70;;;4.50;99.90;;;;;;7370400;19;20015;-64
2023/02/05 00:16:16;;;;;;;;;;;4.50;99.90;;;;;;7373545;19;20918;-63
2023/02/05 00:18:43;;;;;;;18.30;13.40;;;4.50;99.90;;;;;;7372505;19;20000;-63
2023/02/05 00:21:10;;;;;;;21.10;13.10;;;4.50;99.90;;;;;;7373100;19;20018;-61
2023/02/05 00:23:37;;;;;;;17.80;13.52;;;4.50;99.90;;;;;;7371167;19;20026;-63
2023/02/05 00:26:05;;;;;;;19.55;12.93;;;4.50;99.90;;;;;;7374776;19;20703;-63
2023/02/05 00:28:33;;;;;;;18.17;13.10;;;4.60;99.90;;;;;;7375623;19;20022;-63
2023/02/05 00:31:00;;;;;;;22.55;13.65;;;4.60;99.90;;;;;;7379162;19;20031;-62
2023/02/05 00:33:27;;;;;;;17.25;12.93;;;4.60;99.90;;;;;;7379982;19;20031;-61
2023/02/05 00:35:54;;;;;;;19.20;14.07;;;4.70;99.90;;;;;;7380776;19;20032;-60
2023/02/05 00:38:23;;;;;;;22.00;14.02;;;4.70;99.90;;;;;;7379656;19;20048;-60
2023/02/05 00:40:49;;;;;;;25.10;14.43;;;4.70;99.90;;;;;;7376666;19;20029;-61
2023/02/05 00:43:30;;;;;;;25.02;14.10;;;4.80;99.90;;;;;;7378287;19;20022;-63
2023/02/05 00:45:56;;;;;;;19.48;14.10;;;4.80;99.90;;;;;;7381843;19;20014;-61
2023/02/05 00:48:22;;;;;;;18.75;12.68;;;4.90;99.90;;;;;;7376530;19;20097;-63
2023/02/05 00:50:51;;;;;;;21.17;12.82;;;4.90;99.90;;;;;;7379752;19;20053;-63
2023/02/05 00:53:23;;;;;;;21.65;13.48;;;4.90;99.90;;;;;;7377655;19;20512;-63
2023/02/05 00:55:49;;;;;;;;;;;4.90;99.90;;;;;;7382940;19;20022;-63
2023/02/05 00:58:18;;;;;;;22.27;13.07;;;4.90;99.90;;;;;;7378264;19;19918;-64
2023/02/05 01:00:49;;;;;;;25.20;14.27;;;4.90;99.90;;;;;;7378468;19;20010;-63
2023/02/05 01:03:17;;;;;;;24.25;14.23;;;4.90;99.90;;;;;;7377452;19;20014;-62
2023/02/05 01:05:43;;;;;;;22.38;15.10;;;4.90;99.90;;;;;;7373898;19;20022;-62
2023/02/05 01:08:12;;;;;;;23.70;14.68;;;5.00;99.90;;;;;;7378333;19;20695;-62
2023/02/05 01:10:46;;;;;;;22.35;14.73;;;5.00;99.90;;;;;;7377265;19;20451;-61
2023/02/05 01:13:14;;;;;;;23.27;14.18;;;5.00;99.90;;;;;;7376373;19;20683;-62
2023/02/05 01:15:41;;;;;;;22.77;16.02;;;5.00;99.90;;;;;;7377844;19;20759;-62
2023/02/05 01:18:07;;;;;;;20.30;14.57;;;5.00;99.90;;;;;;7378538;19;20015;-65
2023/02/05 01:20:38;;;;;;;25.98;15.02;;;5.00;99.90;;;;;;7377848;19;20010;-63
2023/02/05 01:23:05;;;;;;;24.10;16.00;;;5.00;99.90;;;;;;7378064;19;20953;-63
2023/02/05 01:25:31;;;;;;;20.27;14.63;;;5.00;99.90;;;;;;7375757;19;20717;-63
2023/02/05 01:27:58;;;;;;;22.98;15.52;;;5.00;99.90;;;;;;7379787;19;20022;-63
2023/02/05 01:30:26;;;;;;;22.10;14.52;;;5.10;99.90;;;;;;7376771;19;20101;-61
2023/02/05 01:32:53;;;;;;;20.80;15.38;;;5.10;99.90;;;;;;7377657;19;20026;-62
2023/02/05 01:35:20;;;;;;;24.73;17.15;;;5.10;99.90;;;;;;7374796;19;20018;-61
2023/02/05 01:37:46;;;;;;;24.85;16.10;;;5.10;99.90;;;;;;7374736;19;20029;-61
2023/02/05 01:40:14;;;;;;;22.75;16.00;;;5.10;99.90;;;;;;7369481;19;20043;-63
2023/02/05 01:42:41;;;;;;;22.70;15.50;;;5.10;99.90;;;;;;7375806;19;20533;-65
2023/02/05 01:45:25;;;;;;;21.83;15.45;;;5.10;99.90;;;;;;7375275;19;20048;-63
2023/02/05 01:47:57;;;;;;;22.45;15.18;;;5.10;99.90;;;;;;7373791;19;20023;-63
2023/02/05 01:50:26;;;;;;;23.77;15.52;;;5.10;99.90;;;;;;7376353;19;20035;-63
2023/02/05 01:52:55;;;;;;;29.85;16.27;;;5.20;99.90;;;;;;7377850;19;20093;-62
2023/02/05 01:55:23;;;;;;;26.27;17.20;;;5.20;99.90;;;;;;7378426;19;20029;-61
2023/02/05 01:57:51;;;;;;;27.73;16.90;;;5.20;99.90;;;;;;7378407;19;20016;-61
2023/02/05 02:00:27;;;;;;;30.25;18.15;;;5.20;99.90;;;;;;7375472;19;20946;-61
2023/02/05 02:02:53;;;;;;;36.15;19.77;;;5.20;99.90;;;;;;7377885;19;20018;-61
2023/02/05 02:05:20;;;;;;;28.30;18.98;;;5.30;99.90;;;;;;7373998;19;20011;-61
2023/02/05 02:07:46;;;;;;;28.58;19.83;;;5.20;99.90;;;;;;7377894;19;20026;-61
2023/02/05 02:10:16;;;;;;;29.33;21.33;;;5.20;99.90;;;;;;7375658;19;20030;-61
2023/02/05 02:12:44;;;;;;;28.55;20.00;;;5.10;99.90;;;;;;7379073;19;20016;-61
2023/02/05 02:15:19;;;;;;;35.55;22.20;;;5.10;99.90;;;;;;7375505;19;20015;-61
2023/02/05 02:17:49;;;;;;;35.58;22.50;;;5.10;99.90;;;;;;7374354;19;20066;-61
2023/02/05 02:20:25;;;;;;;38.47;21.38;;;5.10;99.90;;;;;;7375131;19;20504;-61
2023/02/05 02:22:54;;;;;;;35.20;22.85;;;5.10;99.90;;;;;;7375649;19;20015;-62
2023/02/05 02:25:27;;;;;;;41.72;22.85;;;5.10;99.90;;;;;;7373917;19;20920;-61
2023/02/05 02:28:10;;;;;;;45.70;23.25;;;5.10;99.90;;;;;;7371429;19;20544;-62
2023/02/05 02:31:21;;;;;;;36.95;21.75;;;5.10;99.90;;;;;;7375525;19;20596;-62
2023/02/05 02:34:00;;;;;;;36.42;23.70;;;5.10;99.90;;;;;;7369755;19;20011;-61
2023/02/05 02:36:38;;;;;;;39.75;23.63;;;5.10;99.90;;;;;;7375931;19;20078;-61
2023/02/05 02:39:34;;;;;;;39.70;23.42;;;5.10;99.90;;;;;;7375141;19;20094;-61
2023/02/05 02:42:24;;;;;;;43.05;23.73;;;5.10;99.90;;;;;;7373621;19;20925;-62
2023/02/05 02:45:00;;;;;;;45.30;25.35;;;5.10;99.90;;;;;;7374729;19;20018;-62
2023/02/05 02:47:43;;;;;;;44.78;25.10;;;5.10;99.90;;;;;;7372697;19;20858;-63
2023/02/05 02:50:22;;;;;;;45.90;24.95;;;5.10;99.90;;;;;;7377168;19;20082;-61
2023/02/05 02:52:51;;;;;;;44.75;25.73;;;5.10;99.90;;;;;;7369308;19;20082;-62
2023/02/05 02:55:19;;;;;;;52.00;26.95;;;5.20;99.90;;;;;;7371549;19;20033;-65
2023/02/05 02:57:49;;;;;;;52.72;27.17;;;5.20;99.90;;;;;;7371669;19;20078;-61
2023/02/05 03:00:20;;;;;;;55.70;27.83;;;5.20;99.90;;;;;;7372998;19;20121;-62
2023/02/05 03:02:51;;;;;;;45.70;26.25;;;5.20;99.90;;;;;;7373172;19;20009;-62
2023/02/05 03:05:21;;;;;;;47.92;26.40;;;5.30;99.90;;;;;;7368587;19;20022;-62
2023/02/05 03:07:53;;;;;;;52.95;27.15;;;5.30;99.90;;;;;;7370916;19;20014;-62
2023/02/05 03:10:39;;;;;;;49.78;27.73;;;5.40;99.90;;;;;;7369844;19;20078;-62
2023/02/05 03:13:09;;;;;;;53.40;26.42;;;5.40;99.90;;;;;;7371474;19;20068;-62
2023/02/05 03:15:44;;;;;;;55.20;28.02;;;5.40;99.90;;;;;;7367655;19;20014;-62
2023/02/05 03:18:13;;;;;;;50.55;28.98;;;5.40;99.90;;;;;;7372148;19;20514;-62
2023/02/05 03:21:18;;;;;;;53.08;28.63;;;5.50;99.90;;;;;;7372981;19;20022;-61
2023/02/05 03:23:48;;;;;;;60.33;30.25;;;5.60;99.90;;;;;;7370825;19;20025;-62
2023/02/05 03:26:26;;;;;;;64.63;30.92;;;5.60;99.90;;;;;;7371909;19;21588;-61
2023/02/05 03:29:01;;;;;;;72.22;32.55;;;5.60;99.90;;;;;;7372008;19;20588;-62
2023/02/05 03:31:42;;;;;;;64.93;33.67;;;5.60;99.90;;;;;;7373717;19;20058;-61
2023/02/05 03:34:17;;;;;;;93.50;35.20;;;5.70;99.90;;;;;;7371940;19;20018;-62
2023/02/05 03:36:52;;;;;;;86.38;37.13;;;5.70;99.90;;;;;;7371517;19;20030;-61
2023/02/05 03:39:23;;;;;;;103.97;40.65;;;5.80;99.90;;;;;;7370721;19;20014;-62
2023/02/05 03:42:18;;;;;;;88.10;38.03;;;5.80;99.90;;;;;;7371359;19;20022;-62
2023/02/05 03:45:01;;;;;;;;;;;5.90;99.90;;;;;;7371650;19;20389;-62
2023/02/05 03:48:01;;;;;;;89.88;39.15;;;6.00;99.90;;;;;;7370469;19;19921;-61
2023/02/05 03:51:11;;;;;;;112.88;41.15;;;6.00;99.90;;;;;;7369394;19;20030;-61
2023/02/05 03:53:47;;;;;;;100.10;40.95;;;6.00;99.90;;;;;;7371416;19;20018;-63
2023/02/05 03:56:23;;;;;;;112.78;42.33;;;6.00;99.90;;;;;;7374263;19;20106;-61
2023/02/05 03:58:55;;;;;;;107.45;43.63;;;6.10;99.90;;;;;;7371507;19;20018;-62
2023/02/05 04:01:24;;;;;;;101.85;41.20;;;6.10;99.90;;;;;;7371203;19;20019;-62
2023/02/05 04:03:51;;;;;;;99.97;43.13;;;6.10;99.90;;;;;;7370765;19;20047;-62
2023/02/05 04:06:18;;;;;;;104.57;41.75;;;6.00;99.90;;;;;;7369506;19;20492;-62
2023/02/05 04:08:47;;;;;;;119.32;43.28;;;6.10;99.90;;;;;;7372519;19;20022;-63
2023/02/05 04:11:13;;;;;;;100.85;41.28;;;6.10;99.90;;;;;;7366605;19;20483;-61
2023/02/05 04:13:45;;;;;;;106.43;42.58;;;6.10;99.90;;;;;;7372171;19;20029;-61
2023/02/05 04:16:11;;;;;;;98.75;41.00;;;6.10;99.90;;;;;;7369328;19;20022;-61
2023/02/05 04:18:38;;;;;;;108.25;41.83;;;6.10;99.90;;;;;;7371471;19;20030;-61
2023/02/05 04:21:05;;;;;;;98.70;40.35;;;6.10;99.90;;;;;;7369593;19;20148;-61
2023/02/05 04:23:34;;;;;;;93.25;40.55;;;6.10;99.90;;;;;;7372295;19;20098;-61
2023/02/05 04:26:01;;;;;;;98.00;40.42;;;6.10;99.90;;;;;;7369985;19;21561;-62
2023/02/05 04:28:35;;;;;;;108.47;42.08;;;6.10;99.90;;;;;;7373282;19;20029;-61
2023/02/05 04:31:08;;;;;;;93.25;40.78;;;6.10;99.90;;;;;;7370114;19;20018;-65
2023/02/05 04:33:36;;;;;;;101.45;40.42;;;6.10;99.90;;;;;;7372540;19;20022;-63
2023/02/05 04:36:03;;;;;;;96.82;42.33;;;6.10;99.90;;;;;;7368691;19;20029;-63
2023/02/05 04:38:30;;;;;;;111.45;41.67;;;6.10;99.90;;;;;;7371157;19;20350;-63
2023/02/05 04:40:57;;;;;;;101.70;41.38;;;6.10;99.90;;;;;;7368597;19;20025;-62
2023/02/05 04:43:23;;;;;;;102.22;39.97;;;6.10;99.90;;;;;;7373566;19;20045;-63
2023/02/05 04:45:50;;;;;;;88.53;38.80;;;6.10;99.90;;;;;;7372212;19;20022;-62
2023/02/05 04:48:17;;;;;;;100.60;41.00;;;6.10;99.90;;;;;;7370812;19;20035;-61
2023/02/05 04:50:43;;;;;;;102.93;40.72;;;6.10;99.90;;;;;;7368611;19;21491;-61
2023/02/05 04:53:10;;;;;;;106.20;41.30;;;6.10;99.90;;;;;;7371838;19;20029;-62
2023/02/05 04:55:36;;;;;;;94.15;40.63;;;6.10;99.90;;;;;;7368358;19;20021;-60
2023/02/05 04:58:03;;;;;;;102.55;40.67;;;6.20;99.90;;;;;;7372081;19;20125;-60
2023/02/05 05:00:30;;;;;;;102.60;40.17;;;6.10;99.90;;;;;;7368780;19;20565;-60
2023/02/05 05:02:57;;;;;;;97.03;38.50;;;6.20;99.90;;;;;;7371344;19;20165;-60
2023/02/05 05:05:30;;;;;;;94.22;39.13;;;6.20;99.90;;;;;;7369688;19;20081;-60
2023/02/05 05:07:59;;;;;;;100.97;38.17;;;6.20;99.90;;;;;;7368676;19;20014;-60
2023/02/05 05:10:26;;;;;;;96.05;38.55;;;6.20;99.90;;;;;;7363168;19;20022;-61
2023/02/05 05:12:52;;;;;;;96.07;38.03;;;6.30;99.90;;;;;;7366932;19;20048;-61
2023/02/05 05:15:19;;;;;;;88.63;35.72;;;6.30;99.90;;;;;;7367063;19;20045;-62
2023/02/05 05:17:45;;;;;;;92.95;35.38;;;6.40;99.90;;;;;;7376638;19;20126;-62
2023/02/05 05:20:11;;;;;;;97.90;36.17;;;6.40;99.90;;;;;;7376186;19;20023;-62
2023/02/05 05:22:37;;;;;;;78.07;33.40;;;6.40;99.90;;;;;;7373747;19;20045;-61
2023/02/05 05:25:04;;;;;;;71.60;32.55;;;6.50;99.90;;;;;;7377413;19;20035;-61
2023/02/05 05:27:30;;;;;;;79.13;30.80;;;6.50;99.90;;;;;;7373453;19;20010;-62
2023/02/05 05:29:57;;;;;;;66.25;29.80;;;6.50;99.90;;;;;;7374715;19;20022;-62
2023/02/05 05:32:43;;;;;;;69.07;29.73;;;6.50;99.90;;;;;;7377501;19;20023;-62
2023/02/05 05:35:29;;;;;;;65.88;28.73;;;6.50;99.90;;;;;;7376780;19;20026;-64
2023/02/05 05:38:00;;;;;;;60.38;27.33;;;6.60;99.90;;;;;;7376377;19;20057;-62
2023/02/05 05:43:47;;;;;;;61.22;27.58;;;6.60;99.90;;;;;;7375399;19;20019;-62
2023/02/05 05:46:35;;;;;;;59.15;25.58;;;6.60;99.90;;;;;;7377987;19;20018;-62
2023/02/05 05:49:21;;;;;;;64.07;25.70;;;6.60;99.90;;;;;;7370400;19;20031;-61
2023/02/05 05:51:48;;;;;;;58.30;25.20;;;6.60;99.90;;;;;;7375474;19;20063;-62
2023/02/05 05:54:14;;;;;;;56.92;26.55;;;6.60;99.90;;;;;;7374755;19;20018;-61
2023/02/05 05:56:40;;;;;;;51.22;24.35;;;6.70;99.90;;;;;;7378471;19;20011;-62
2023/02/05 05:59:07;;;;;;;52.50;25.75;;;6.60;99.90;;;;;;7373296;19;20375;-61
2023/02/05 06:01:33;;;;;;;47.60;20.02;;;6.70;99.90;;;;;;7372578;19;20018;-62
2023/02/05 06:03:59;;;;;;;32.20;15.43;;;6.70;99.90;;;;;;7376460;19;20022;-61
2023/02/05 06:06:26;;;;;;;26.90;12.10;;;6.70;99.90;;;;;;7374412;19;20018;-62
2023/02/05 06:08:52;;;;;;;18.50;10.10;;;6.70;99.90;;;;;;7375691;19;20039;-62
2023/02/05 06:11:20;;;;;;;15.70;6.07;;;6.70;99.90;;;;;;7373539;19;20019;-62
2023/02/05 06:13:46;;;;;;;13.20;3.95;;;6.50;99.90;;;;;;7374008;19;20588;-61
2023/02/05 06:16:12;;;;;;;15.73;4.20;;;6.50;99.90;;;;;;7377255;19;20480;-65
2023/02/05 06:18:39;;;;;;;11.98;2.55;;;6.50;99.90;;;;;;7374441;19;20026;-61
2023/02/05 06:21:05;;;;;;;15.38;2.78;;;6.50;99.90;;;;;;7370783;19;20014;-62
2023/02/05 06:23:33;;;;;;;11.90;2.78;;;6.40;99.90;;;;;;7370790;19;20022;-63
2023/02/05 06:25:59;;;;;;;9.55;1.52;;;6.40;99.90;;;;;;7369143;19;20030;-62
2023/02/05 06:28:26;;;;;;;15.13;2.22;;;6.30;99.90;;;;;;7373036;19;20010;-62
2023/02/05 06:30:52;;;;;;;16.30;2.53;;;6.30;99.90;;;;;;7369700;19;20021;-61
2023/02/05 06:33:18;;;;;;;12.43;2.72;;;6.30;99.90;;;;;;7374920;19;20015;-63
2023/02/05 06:35:48;;;;;;;7.40;1.85;;;6.20;99.90;;;;;;7374947;19;20734;-61
2023/02/05 06:38:14;;;;;;;14.23;2.83;;;6.20;99.90;;;;;;7369481;19;20041;-61
2023/02/05 06:40:41;;;;;;;8.30;1.95;;;6.20;99.90;;;;;;7373272;19;20022;-61
2023/02/05 06:43:08;;;;;;;9.45;1.63;;;6.20;99.90;;;;;;7372773;19;20374;-61
2023/02/05 06:45:34;;;;;;;8.35;1.38;;;6.10;99.90;;;;;;7376980;19;20588;-61
2023/02/05 06:48:00;;;;;;;12.27;2.22;;;6.10;99.90;;;;;;7371921;19;20839;-63
2023/02/05 06:50:27;;;;;;;8.82;1.90;;;6.10;99.90;;;;;;7373515;19;20085;-61
2023/02/05 06:52:53;;;;;;;11.65;1.80;;;6.10;99.90;;;;;;7374812;19;20014;-62
2023/02/05 06:55:19;;;;;;;9.07;1.95;;;6.10;99.90;;;;;;7373301;19;20041;-62
2023/02/05 06:57:48;;;;;;;13.85;2.60;;;6.00;99.90;;;;;;7375360;19;20018;-63
2023/02/05 07:00:15;;;;;;;11.52;2.20;;;6.10;99.90;;;;;;7374179;19;20014;-63
2023/02/05 07:02:42;;;;;;;10.10;1.73;;;6.00;99.90;;;;;;7368564;19;20029;-61
2023/02/05 07:05:09;;;;;;;8.98;1.80;;;6.00;99.90;;;;;;7374388;19;20011;-61
2023/02/05 07:07:37;;;;;;;20.15;4.65;;;6.00;99.90;;;;;;7372278;19;20022;-61
2023/02/05 07:10:04;;;;;;;14.02;3.55;;;6.00;99.90;;;;;;7371902;19;20018;-61
2023/02/05 07:12:31;;;;;;;19.45;4.30;;;6.00;99.90;;;;;;7368892;19;20025;-62
2023/02/05 07:14:57;;;;;;;15.65;2.75;;;6.00;99.90;;;;;;7373106;19;20053;-62
2023/02/05 07:17:23;;;;;;;13.95;3.13;;;6.00;99.90;;;;;;7365778;19;20650;-62
2023/02/05 07:19:50;;;;;;;14.15;2.40;;;6.00;99.90;;;;;;7370513;19;20022;-62
2023/02/05 07:22:16;;;;;;;13.80;2.70;;;6.00;99.90;;;;;;7366153;19;20014;-61
2023/02/05 07:24:49;;;;;;;11.10;2.00;;;6.00;99.90;;;;;;7368292;19;20015;-62
2023/02/05 07:27:18;;;;;;;15.00;3.10;;;6.00;99.90;;;;;;7370106;19;20018;-62
2023/02/05 07:29:44;;;;;;;10.23;2.05;;;6.00;99.90;;;;;;7368512;19;20018;-62
2023/02/05 07:32:11;;;;;;;10.05;1.70;;;6.10;99.90;;;;;;7367604;19;20029;-62
2023/02/05 07:34:37;;;;;;;12.60;2.30;;;6.10;99.90;;;;;;7365115;19;20388;-62
2023/02/05 07:37:04;;;;;;;12.43;2.47;;;6.10;99.90;;;;;;7369899;19;20025;-62
2023/02/05 07:39:32;;;;;;;14.13;3.38;;;6.10;99.90;;;;;;7363915;19;20029;-62
2023/02/05 07:41:59;;;;;;;12.35;2.35;;;6.10;99.90;;;;;;7367459;19;20045;-61
2023/02/05 07:44:37;;;;;;;14.73;4.00;;;6.10;99.90;;;;;;7365060;19;20054;-61
2023/02/05 07:47:05;;;;;;;14.18;3.13;;;6.10;99.90;;;;;;7366686;19;20028;-61
2023/02/05 07:49:32;;;;;;;17.15;4.32;;;6.10;99.90;;;;;;7367019;19;20022;-61
2023/02/05 07:51:58;;;;;;;14.35;2.05;;;6.20;99.90;;;;;;7367487;19;20056;-62
2023/02/05 07:54:24;;;;;;;16.88;3.45;;;6.20;99.90;;;;;;7367364;19;20014;-62
2023/02/05 07:56:51;;;;;;;15.20;3.63;;;6.20;99.90;;;;;;7367153;19;20022;-61
2023/02/05 07:59:17;;;;;;;14.05;2.00;;;6.20;99.90;;;;;;7368792;19;20044;-60
2023/02/05 08:01:43;;;;;;;11.85;2.70;;;6.20;99.90;;;;;;7365960;19;21633;-61
2023/02/05 08:04:09;;;;;;;14.50;2.55;;;6.30;99.90;;;;;;7369864;19;20015;-61
2023/02/05 08:06:36;;;;;;;19.27;6.43;;;6.30;99.90;;;;;;7368056;19;20015;-62
2023/02/05 08:09:02;;;;;;;15.70;2.67;;;6.30;99.90;;;;;;7369044;19;20018;-62
2023/02/05 08:11:30;;;;;;;19.20;3.03;;;6.30;99.90;;;;;;7363879;19;20082;-61
2023/02/05 08:13:57;;;;;;;12.80;2.60;;;6.30;99.90;;;;;;7367881;19;20633;-62
2023/02/05 08:16:24;;;;;;;14.45;3.42;;;6.30;99.90;;;;;;7366721;19;20049;-61
2023/02/05 08:18:50;;;;;;;20.13;3.80;;;6.30;99.90;;;;;;7368695;19;20033;-62
2023/02/05 08:21:20;;;;;;;23.02;10.65;;;6.30;99.90;;;;;;7367249;19;20702;-61
2023/02/05 08:23:48;;;;;;;14.43;2.92;;;6.30;99.90;;;;;;7368826;19;20023;-61
2023/02/05 08:26:16;;;;;;;14.30;2.42;;;6.30;99.90;;;;;;7367128;19;20514;-61
2023/02/05 08:28:43;;;;;;;10.65;2.83;;;6.30;99.90;;;;;;7368081;19;20022;-61
2023/02/05 08:31:15;;;;;;;21.55;7.13;;;6.30;99.90;;;;;;7367442;19;20022;-61
2023/02/05 08:33:41;;;;;;;12.88;2.88;;;6.30;99.90;;;;;;7366695;19;20021;-61
2023/02/05 08:36:09;;;;;;;11.13;3.00;;;6.30;99.90;;;;;;7366265;19;20580;-62
2023/02/05 08:38:35;;;;;;;14.35;2.97;;;6.40;99.90;;;;;;7365216;19;20023;-62
2023/02/05 08:41:11;;;;;;;19.02;6.07;;;6.40;99.90;;;;;;7364536;19;20488;-62
2023/02/05 08:43:39;;;;;;;26.77;13.10;;;6.40;99.90;;;;;;7368489;19;20061;-62
2023/02/05 08:46:06;;;;;;;14.77;2.83;;;6.40;99.90;;;;;;7369405;19;20041;-62
2023/02/05 08:48:35;;;;;;;16.10;3.63;;;6.50;99.90;;;;;;7364320;19;20019;-62
2023/02/05 08:51:08;;;;;;;12.10;2.57;;;6.50;99.90;;;;;;7378420;19;20043;-62
2023/02/05 08:53:35;;;;;;;13.23;3.33;;;6.50;99.90;;;;;;7377359;19;20044;-61
2023/02/05 08:56:04;;;;;;;21.27;5.68;;;6.50;99.90;;;;;;7377290;19;20021;-62
2023/02/05 08:58:31;;;;;;;12.95;2.92;;;6.50;99.90;;;;;;7372633;19;20022;-61
2023/02/05 09:01:24;;;;;;;19.40;5.88;;;6.50;99.90;;;;;;7375141;19;20464;-62
2023/02/05 09:03:51;;;;;;;29.10;11.65;;;6.50;99.90;;;;;;7377070;19;20786;-62
2023/02/05 09:06:17;;;;;;;26.05;6.35;;;6.50;99.90;;;;;;7377081;19;20429;-62
2023/02/05 09:08:44;;;;;;;20.83;7.38;;;6.50;99.90;;;;;;7375034;19;20022;-61
2023/02/05 09:11:12;;;;;;;21.70;7.15;;;6.50;99.90;;;;;;7376165;19;20018;-58
2023/02/05 09:13:39;;;;;;;17.38;4.22;;;6.50;99.90;;;;;;7375486;19;20023;-59
2023/02/05 09:16:10;;;;;;;18.67;3.95;;;6.60;99.90;;;;;;7376328;19;20035;-59
2023/02/05 09:18:36;;;;;;;31.10;11.57;;;6.60;99.90;;;;;;7376054;19;20029;-59
2023/02/05 09:21:06;;;;;;;24.67;7.63;;;6.60;99.90;;;;;;7373604;19;20014;-61
2023/02/05 09:23:33;;;;;;;21.75;4.88;;;6.70;99.90;;;;;;7374366;19;20010;-61
2023/02/05 09:25:59;;;;;;;17.02;6.07;;;6.60;99.90;;;;;;7376409;19;20157;-61
2023/02/05 09:28:26;;;;;;;19.65;5.30;;;6.60;99.90;;;;;;7373665;19;20014;-61
2023/02/05 09:30:52;;;;;;;48.53;30.75;;;6.60;99.90;;;;;;7376163;19;20085;-61
2023/02/05 09:33:18;;;;;;;41.33;22.33;;;6.60;99.90;;;;;;7373667;19;20306;-61
2023/02/05 09:35:45;;;;;;;36.70;18.35;;;6.70;99.90;;;;;;7376443;19;20019;-61
2023/02/05 09:38:16;;;;;;;20.45;9.85;;;6.70;99.90;;;;;;7374702;19;20019;-61
2023/02/05 09:41:14;;;;;;;23.33;10.13;;;6.70;99.90;;;;;;7373822;19;20682;-62
2023/02/05 09:44:03;;;;;;;29.90;14.23;;;6.80;99.90;;;;;;7376570;19;20125;-62
2023/02/05 09:46:41;;;;;;;14.88;4.10;;;6.90;99.90;;;;;;7376468;19;20014;-62
2023/02/05 09:49:18;;;;;;;28.33;15.57;;;6.90;99.90;;;;;;7373427;19;21712;-61
2023/02/05 09:51:49;;;;;;;10.18;3.80;;;7.00;99.90;;;;;;7374352;19;20017;-62
2023/02/05 09:54:23;;;;;;;11.53;4.60;;;7.10;99.90;;;;;;7370477;19;20523;-62
2023/02/05 09:56:52;;;;;;;10.90;4.28;;;7.30;99.90;;;;;;7371049;19;20358;-62
2023/02/05 09:59:22;;;;;;;14.88;6.28;;;7.70;99.90;;;;;;7373671;19;20022;-62
2023/02/05 10:01:52;;;;;;;9.88;3.35;;;8.40;99.90;;;;;;7367593;19;20676;-63
2023/02/05 10:04:18;;;;;;;24.55;15.20;;;8.80;99.90;;;;;;7372210;19;20015;-63
2023/02/05 10:06:55;;;;;;;13.98;6.85;;;9.00;99.90;;;;;;7373434;19;20023;-62
2023/02/05 10:09:51;;;;;;;12.73;4.03;;;9.10;99.90;;;;;;7371481;19;20031;-62
2023/02/05 10:12:24;;;;;;;21.08;11.30;;;9.20;99.90;;;;;;7371232;19;20028;-62
2023/02/05 10:14:54;;;;;;;29.25;12.43;;;9.10;99.90;;;;;;7371902;19;20018;-62
2023/02/05 10:17:38;;;;;;;22.02;11.88;;;8.90;99.90;;;;;;7370931;19;20018;-62
2023/02/05 10:20:23;;;;;;;27.15;15.18;;;8.70;99.90;;;;;;7373652;19;20157;-62
2023/02/05 10:23:12;;;;;;;28.27;14.68;;;8.50;99.90;;;;;;7368867;19;20010;-61
2023/02/05 10:25:49;;;;;;;22.90;10.77;;;8.40;99.90;;;;;;7367578;19;20022;-61
2023/02/05 10:28:46;;;;;;;19.42;5.85;;;8.20;99.90;;;;;;7370656;19;20110;-61
2023/02/05 10:31:52;;;;;;;40.80;23.40;;;8.00;99.90;;;;;;7372837;19;20010;-62
2023/02/05 10:34:39;;;;;;;37.38;15.05;;;8.00;99.90;;;;;;7370865;19;20836;-61
2023/02/05 10:37:17;;;;;;;36.13;15.02;;;8.20;99.90;;;;;;7368452;19;20014;-61
2023/02/05 10:39:45;;;;;;;22.05;5.47;;;8.80;99.90;;;;;;7371912;19;20791;-61
2023/02/05 10:42:18;;;;;;;29.67;9.40;;;8.80;99.90;;;;;;7369790;19;20903;-62
2023/02/05 10:44:47;;;;;;;24.00;4.57;;;8.90;99.90;;;;;;7370059;19;20022;-61
2023/02/05 10:47:42;;;;;;;29.48;9.65;;;8.90;99.90;;;;;;7373722;19;20051;-61
2023/02/05 10:50:39;;;;;;;26.95;8.50;;;8.90;99.90;;;;;;7368826;19;20381;-61
2023/02/05 10:53:06;;;;;;;28.65;9.15;;;9.50;99.90;;;;;;7369448;19;20453;-62
2023/02/05 10:55:33;;;;;;;26.42;9.70;;;10.10;99.90;;;;;;7371218;19;20761;-62
2023/02/05 10:58:06;;;;;;;20.45;6.15;;;11.00;99.90;;;;;;7369726;19;20022;-62
2023/02/05 11:00:33;;;;;;;20.63;4.80;;;11.50;99.90;;;;;;7366518;19;20018;-62
2023/02/05 11:02:59;;;;;;;19.33;6.03;;;11.40;99.90;;;;;;7364946;19;20026;-62
2023/02/05 11:05:37;;;;;;;34.80;15.27;;;10.60;99.90;;;;;;7367309;19;20018;-62
2023/02/05 11:08:03;;;;;;;30.48;11.82;;;10.10;99.90;;;;;;7368700;19;20031;-62
2023/02/05 11:10:34;;;;;;;20.40;8.20;;;9.40;99.90;;;;;;7362850;19;20033;-62
2023/02/05 11:13:21;;;;;;;28.23;8.90;;;9.10;99.90;;;;;;7364824;19;20015;-63
2023/02/05 11:16:09;;;;;;;19.75;6.78;;;9.20;99.90;;;;;;7359998;19;20018;-63
2023/02/05 11:18:58;;;;;;;25.40;9.07;;;10.00;99.90;;;;;;7366859;19;20041;-63
2023/02/05 11:21:51;;;;;;;17.77;5.82;;;10.60;99.90;;;;;;7359545;19;20026;-63
2023/02/05 11:24:30;;;;;;;28.58;13.02;;;11.20;99.90;;;;;;7360479;19;20023;-60
2023/02/05 11:27:15;;;;;;;21.50;8.82;;;12.30;99.90;;;;;;7358716;19;20019;-61
2023/02/05 11:29:42;;;;;;;22.27;5.20;;;12.60;99.90;;;;;;7364087;19;20057;-63
2023/02/05 11:32:19;;;;;;;26.38;7.05;;;12.70;99.90;;;;;;7364602;19;20925;-63
2023/02/05 11:35:18;;;;;;;30.48;12.43;;;11.80;99.90;;;;;;7359969;19;20025;-63
2023/02/05 11:38:15;;;;;;;38.88;16.85;;;11.10;99.90;;;;;;7356842;19;20026;-63
2023/02/05 11:41:05;;;;;;;21.17;5.80;;;10.70;99.90;;;;;;7361138;19;20019;-62
2023/02/05 11:43:57;;;;;;;40.13;19.25;;;10.50;99.90;;;;;;7360447;19;20606;-62
2023/02/05 11:46:46;;;;;;;;;;;10.00;99.90;;;;;;7362577;19;20023;-62
2023/02/05 11:49:36;;;;;;;28.88;11.88;;;9.60;99.90;;;;;;7355967;19;19922;-62
2023/02/05 11:52:30;;;;;;;27.38;7.18;;;9.80;99.90;;;;;;7358929;19;20092;-62
2023/02/05 11:55:30;;;;;;;39.10;13.27;;;9.70;99.90;;;;;;7359897;19;20022;-62
2023/02/05 11:58:30;;;;;;;26.90;6.45;;;9.60;99.90;;;;;;7356078;19;20088;-61
2023/02/05 12:01:23;;;;;;;31.00;9.27;;;9.40;99.90;;;;;;7359563;19;20035;-62
2023/02/05 12:04:12;;;;;;;29.08;11.63;;;9.10;99.90;;;;;;7353427;19;20595;-62
2023/02/05 12:07:09;;;;;;;33.20;10.43;;;9.00;99.90;;;;;;7363348;19;20018;-61
2023/02/05 12:09:58;;;;;;;33.30;8.20;;;8.90;99.90;;;;;;7359904;19;20025;-62
2023/02/05 12:13:01;;;;;;;28.38;7.57;;;8.80;99.90;;;;;;7358590;19;20043;-62
2023/02/05 12:16:35;;;;;;;30.50;8.15;;;8.80;99.90;;;;;;7357398;19;20033;-62
2023/02/05 12:19:29;;;;;;;26.55;6.40;;;8.80;99.90;;;;;;7362721;19;20052;-62
2023/02/05 12:22:57;;;;;;;32.30;9.93;;;9.30;99.90;;;;;;7354174;19;20395;-62
2023/02/05 12:26:10;;;;;;;28.00;9.40;;;9.90;99.90;;;;;;7366195;19;20014;-62
2023/02/05 12:29:18;;;;;;;24.13;6.15;;;10.80;99.90;;;;;;7371735;19;20041;-62
2023/02/05 12:32:37;;;;;;;25.23;6.30;;;12.20;99.90;;;;;;7371385;19;20019;-62
2023/02/05 12:35:38;;;;;;;28.08;5.30;;;12.30;99.90;;;;;;7371411;19;20019;-62
2023/02/05 12:38:12;;;;;;;30.95;9.77;;;12.90;99.90;;;;;;7366596;19;20037;-61
2023/02/05 12:40:52;;;;;;;23.30;5.20;;;13.50;99.90;;;;;;7372194;19;20637;-63
2023/02/05 12:43:47;;;;;;;28.92;5.75;;;13.10;99.90;;;;;;7370179;19;20031;-61
2023/02/05 12:46:32;;;;;;;22.23;6.38;;;14.00;99.90;;;;;;7366465;19;20021;-63
2023/02/05 12:49:23;;;;;;;28.92;11.50;;;14.30;99.90;;;;;;7363299;19;20882;-62
2023/02/05 12:52:10;;;;;;;36.85;15.35;;;14.10;99.90;;;;;;7367450;19;20089;-62
2023/02/05 12:55:06;;;;;;;31.88;10.23;;;14.00;99.90;;;;;;7368404;19;20476;-61
2023/02/05 12:58:07;;;;;;;29.70;11.98;;;13.00;99.90;;;;;;7366670;19;20041;-62
2023/02/05 13:00:51;;;;;;;34.58;10.73;;;12.70;99.90;;;;;;7369142;19;20350;-61
2023/02/05 13:03:47;;;;;;;32.22;12.73;;;11.80;99.90;;;;;;7369990;19;20031;-62
2023/02/05 13:06:15;;;;;;;23.63;5.78;;;11.60;99.90;;;;;;7371639;19;20053;-61
2023/02/05 13:09:10;;;;;;;25.55;7.78;;;11.50;99.90;;;;;;7369357;19;21482;-62
2023/02/05 13:11:46;;;;;;;23.60;7.13;;;11.70;99.90;;;;;;7368182;19;20015;-61
2023/02/05 13:14:22;;;;;;;19.88;5.65;;;12.40;99.90;;;;;;7365799;19;20039;-61
2023/02/05 13:17:02;;;;;;;34.22;13.77;;;12.30;99.90;;;;;;7364170;19;20094;-62
2023/02/05 13:20:16;;;;;;;26.92;8.43;;;12.00;99.90;;;;;;7369470;19;20047;-62